Terminal Aerodrome Forecast
Issued by NWS

Home | Current Version | Previous Version | Text Only | Print | Product List | Glossary On
Versions: 1 2 3 4 5 6 7 8 9 10 11 12 13 14 15 16 17 18 19 20 21 22 23 24 25
574
FTUS46 KEKA 271649 AAB
TAFCEC
TAF AMD
KCEC 271649Z 2717/2812 16009KT 3SM -SHRAGS SCT015 BKN025 OVC035
      TEMPO 2717/2718 6SM -SHRA SCT015 SCT025 OVC035
     FM271800 16010KT P6SM -SHRA FEW025 SCT030 OVC040
      TEMPO 2718/2722 5SM -SHRAGS SCT025 OVC030
     FM280400 18007KT P6SM -SHRA OVC040
     FM281100 VRB05KT P6SM -SHRA OVC040=

USA.gov is the U.S. government's official web portal to all federal, state and local government web resources and services.